GAF455 FKYS-FAGG
Flight info
| Callsign | GAF455 |
|---|---|
| Flight time | N/A |
| Altitude | 37000 |
| Route | DCT |
| Aircraft | A343/H-SDE2E3FGHIJ4J5M1RWXY/LB1D1 |
Departure
| Time | 2026-04-17 17:26 |
|---|---|
| Airport | Yaoundé Nsimalen International Airport (FKYS) |
Arrival
| Time | N/A |
|---|---|
| Airport | George Airport (FAGG) |
| Time | Latitude | Longitude | Altitude | Speed | Heading |
|---|---|---|---|---|---|
| 2026-04-17 17:16 | -1.79363 | 13.32666 | 29794 ft | 526 kts | 344° |
| 2026-04-17 17:17 | -1.51372 | 13.24390 | 29802 ft | 527 kts | 344° |
| 2026-04-17 17:17 | -1.37316 | 13.20235 | 30308 ft | 526 kts | 343° |
| 2026-04-17 17:17 | -1.23434 | 13.16131 | 32285 ft | 499 kts | 343° |
| 2026-04-17 17:17 | -1.10474 | 13.12301 | 34361 ft | 483 kts | 343° |
| 2026-04-17 17:18 | -0.97645 | 13.08510 | 35597 ft | 479 kts | 343° |
| 2026-04-17 17:18 | -0.84875 | 13.04736 | 36710 ft | 478 kts | 343° |
| 2026-04-17 17:18 | -0.72114 | 13.00966 | 37869 ft | 474 kts | 343° |
| 2026-04-17 17:18 | -0.59533 | 12.97249 | 38880 ft | 471 kts | 343° |
| 2026-04-17 17:19 | -0.46946 | 12.93530 | 39622 ft | 471 kts | 342° |
| 2026-04-17 17:19 | -0.34382 | 12.89818 | 40332 ft | 470 kts | 342° |
| 2026-04-17 17:19 | -0.21775 | 12.86093 | 40742 ft | 476 kts | 342° |
| 2026-04-17 17:19 | -0.08877 | 12.82282 | 40779 ft | 490 kts | 342° |
| 2026-04-17 17:20 | 0.04368 | 12.78371 | 40793 ft | 498 kts | 342° |
| 2026-04-17 17:20 | 0.30760 | 12.70574 | 40783 ft | 496 kts | 342° |
| 2026-04-17 17:21 | 0.57090 | 12.62795 | 40780 ft | 498 kts | 342° |
| 2026-04-17 17:21 | 0.83716 | 12.54928 | 40775 ft | 499 kts | 342° |
| 2026-04-17 17:22 | 1.10358 | 12.47055 | 40778 ft | 499 kts | 342° |
| 2026-04-17 17:22 | 1.37063 | 12.39162 | 40776 ft | 502 kts | 342° |
| 2026-04-17 17:23 | 1.63749 | 12.31273 | 40784 ft | 503 kts | 342° |
| 2026-04-17 17:23 | 1.90738 | 12.23292 | 40707 ft | 499 kts | 342° |
| 2026-04-17 17:23 | 2.03854 | 12.19412 | 38322 ft | 503 kts | 342° |
| 2026-04-17 17:24 | 2.17404 | 12.15403 | 35513 ft | 506 kts | 343° |
| 2026-04-17 17:24 | 2.30941 | 12.11398 | 32366 ft | 511 kts | 344° |
| 2026-04-17 17:24 | 2.44836 | 12.07286 | 28764 ft | 516 kts | 344° |
| 2026-04-17 17:24 | 2.58193 | 12.03332 | 26777 ft | 500 kts | 344° |
| 2026-04-17 17:25 | 2.71316 | 11.99446 | 24935 ft | 484 kts | 344° |
| 2026-04-17 17:25 | 2.84048 | 11.95676 | 23144 ft | 470 kts | 344° |
| 2026-04-17 17:25 | 2.96435 | 11.92006 | 21143 ft | 456 kts | 345° |
| 2026-04-17 17:25 | 3.08395 | 11.88463 | 19286 ft | 443 kts | 345° |
| 2026-04-17 17:26 | 3.20096 | 11.84995 | 17421 ft | 431 kts | 345° |
| 2026-04-17 17:26 | 3.31336 | 11.81663 | 15479 ft | 418 kts | 345° |
| 2026-04-17 17:26 | 3.42475 | 11.78360 | 13628 ft | 407 kts | 345° |
| 2026-04-17 17:26 | 3.53167 | 11.75190 | 11806 ft | 395 kts | 345° |
| 2026-04-17 17:27 | 3.63489 | 11.72128 | 10422 ft | 386 kts | 345° |
| 2026-04-17 17:27 | 3.69940 | 11.70213 | 9536 ft | 381 kts | 345° |
| 2026-04-17 17:27 | 3.72474 | 11.69464 | 9166 ft | 378 kts | 345° |
| 2026-04-17 17:27 | 3.74974 | 11.68722 | 8811 ft | 368 kts | 345° |
| 2026-04-17 17:28 | 3.77339 | 11.67990 | 9001 ft | 340 kts | 340° |
| 2026-04-17 17:28 | 3.79272 | 11.67032 | 9902 ft | 291 kts | 334° |
| 2026-04-17 17:28 | 3.80951 | 11.65987 | 9981 ft | 275 kts | 328° |
| 2026-04-17 17:28 | 3.82515 | 11.64933 | 9886 ft | 266 kts | 329° |
| 2026-04-17 17:29 | 3.84099 | 11.63975 | 9412 ft | 269 kts | 342° |
| 2026-04-17 17:29 | 3.85925 | 11.63562 | 8829 ft | 275 kts | 355° |
| 2026-04-17 17:29 | 3.87857 | 11.63477 | 8275 ft | 282 kts | 5° |
| 2026-04-17 17:29 | 3.89831 | 11.63694 | 7681 ft | 290 kts | 12° |
| 2026-04-17 17:30 | 3.91832 | 11.64050 | 7097 ft | 295 kts | 15° |
| 2026-04-17 17:30 | 3.93781 | 11.64728 | 6481 ft | 298 kts | 29° |
| 2026-04-17 17:30 | 3.95564 | 11.65826 | 5741 ft | 302 kts | 41° |
| 2026-04-17 17:30 | 3.97487 | 11.66640 | 5193 ft | 304 kts | 1° |
| 2026-04-17 17:31 | 3.99328 | 11.65983 | 5248 ft | 284 kts | 310° |
| 2026-04-17 17:31 | 3.99847 | 11.64158 | 5041 ft | 275 kts | 264° |
| 2026-04-17 17:31 | 3.99108 | 11.62407 | 4551 ft | 279 kts | 233° |
| 2026-04-17 17:31 | 3.97752 | 11.61001 | 4160 ft | 280 kts | 222° |
| 2026-04-17 17:32 | 3.96247 | 11.59784 | 3906 ft | 275 kts | 214° |
| 2026-04-17 17:32 | 3.94529 | 11.59030 | 3789 ft | 266 kts | 200° |
| 2026-04-17 17:32 | 3.92771 | 11.58525 | 3575 ft | 260 kts | 198° |
| 2026-04-17 17:32 | 3.91057 | 11.58044 | 3430 ft | 252 kts | 197° |
| 2026-04-17 17:33 | 3.89378 | 11.57618 | 3302 ft | 244 kts | 195° |
| 2026-04-17 17:33 | 3.87777 | 11.57203 | 3162 ft | 237 kts | 194° |
| 2026-04-17 17:33 | 3.86179 | 11.56899 | 3017 ft | 232 kts | 192° |
| 2026-04-17 17:33 | 3.84600 | 11.56614 | 2845 ft | 229 kts | 192° |
| 2026-04-17 17:34 | 3.83050 | 11.56286 | 2731 ft | 221 kts | 193° |
| 2026-04-17 17:34 | 3.81599 | 11.55990 | 2693 ft | 210 kts | 191° |
| 2026-04-17 17:34 | 3.80193 | 11.55807 | 2675 ft | 197 kts | 184° |
| 2026-04-17 17:34 | 3.78860 | 11.55763 | 2640 ft | 186 kts | 180° |
| 2026-04-17 17:35 | 3.77630 | 11.55762 | 2647 ft | 168 kts | 180° |
| 2026-04-17 17:35 | 3.76517 | 11.55742 | 2561 ft | 155 kts | 181° |
| 2026-04-17 17:35 | 3.75497 | 11.55708 | 2470 ft | 135 kts | 183° |
| 2026-04-17 17:35 | 3.74621 | 11.55654 | 2331 ft | 91 kts | 159° |
| 2026-04-17 17:36 | 3.74406 | 11.55555 | 2315 ft | 0 kts | 11° |
| 2026-04-17 17:36 | 3.74407 | 11.55556 | 2313 ft | 0 kts | 15° |
| 2026-04-17 17:36 | 3.73999 | 11.55252 | 2610 ft | 0 kts | 17° |
| 2026-04-17 17:36 | 3.74062 | 11.55476 | 3640 ft | 0 kts | 355° |
| 2026-04-17 17:37 | 3.74026 | 11.55475 | 5498 ft | 52 kts | 169° |
| 2026-04-17 17:37 | 3.75510 | 11.55751 | 3168 ft | 0 kts | 170° |
| 2026-04-17 17:37 | 3.74266 | 11.55822 | 4658 ft | 214 kts | 186° |
| 2026-04-17 17:37 | 3.74506 | 11.55740 | 3758 ft | 1 kts | 191° |
| 2026-04-17 17:38 | 3.74870 | 11.55812 | 2785 ft | 175 kts | 193° |
| 2026-04-17 17:38 | 3.73655 | 11.55551 | 2457 ft | 161 kts | 191° |
| 2026-04-17 17:38 | 3.72595 | 11.55382 | 2263 ft | 138 kts | 188° |
| 2026-04-17 17:38 | 3.72053 | 11.55301 | 2260 ft | 26 kts | 188° |